sensor_id;sensor_type;location;lat;lon;timestamp;pressure;altitude;pressure_sealevel;temperature;humidity
80781;BME280;70341;56.408;10.874;2023-07-13T00:01:17;101002.73;;;14.69;70.89
80781;BME280;70341;56.408;10.874;2023-07-13T00:03:47;101001.70;;;14.68;71.01
80781;BME280;70341;56.408;10.874;2023-07-13T00:06:15;101000.54;;;14.67;70.97
80781;BME280;70341;56.408;10.874;2023-07-13T00:08:46;100997.21;;;14.65;71.10
80781;BME280;70341;56.408;10.874;2023-07-13T00:11:17;101002.60;;;14.68;71.21
80781;BME280;70341;56.408;10.874;2023-07-13T00:13:46;100997.03;;;14.65;71.31
80781;BME280;70341;56.408;10.874;2023-07-13T00:16:14;101001.98;;;14.66;71.45
80781;BME280;70341;56.408;10.874;2023-07-13T00:18:45;100999.34;;;14.63;71.67
80781;BME280;70341;56.408;10.874;2023-07-13T00:21:14;100999.27;;;14.61;71.73
80781;BME280;70341;56.408;10.874;2023-07-13T00:23:44;100994.98;;;14.60;72.05
80781;BME280;70341;56.408;10.874;2023-07-13T00:26:13;100995.14;;;14.64;72.10
80781;BME280;70341;56.408;10.874;2023-07-13T00:28:44;100998.92;;;14.67;72.27
80781;BME280;70341;56.408;10.874;2023-07-13T00:31:13;100994.92;;;14.68;72.56
80781;BME280;70341;56.408;10.874;2023-07-13T00:33:45;100994.63;;;14.63;72.62
80781;BME280;70341;56.408;10.874;2023-07-13T00:36:14;101002.11;;;14.67;72.83
80781;BME280;70341;56.408;10.874;2023-07-13T00:38:44;100992.51;;;14.66;72.78
80781;BME280;70341;56.408;10.874;2023-07-13T00:41:13;100996.88;;;14.71;72.91
80781;BME280;70341;56.408;10.874;2023-07-13T00:43:43;100992.80;;;14.71;72.94
80781;BME280;70341;56.408;10.874;2023-07-13T00:46:19;100995.80;;;14.72;72.97
80781;BME280;70341;56.408;10.874;2023-07-13T00:48:51;101002.38;;;14.73;72.86
80781;BME280;70341;56.408;10.874;2023-07-13T00:51:30;101001.61;;;14.73;73.06
80781;BME280;70341;56.408;10.874;2023-07-13T00:54:08;101001.89;;;14.75;72.85
80781;BME280;70341;56.408;10.874;2023-07-13T00:56:43;101004.85;;;14.77;72.83
80781;BME280;70341;56.408;10.874;2023-07-13T00:59:18;101001.50;;;14.72;72.83
80781;BME280;70341;56.408;10.874;2023-07-13T01:01:48;101001.31;;;14.72;72.88
80781;BME280;70341;56.408;10.874;2023-07-13T01:04:18;101002.17;;;14.73;73.14
80781;BME280;70341;56.408;10.874;2023-07-13T01:06:47;101001.85;;;14.72;73.35
80781;BME280;70341;56.408;10.874;2023-07-13T01:09:20;100996.84;;;14.73;73.35
80781;BME280;70341;56.408;10.874;2023-07-13T01:11:48;100995.89;;;14.70;73.64
80781;BME280;70341;56.408;10.874;2023-07-13T01:14:18;100996.73;;;14.71;73.70
80781;BME280;70341;56.408;10.874;2023-07-13T01:16:48;100997.55;;;14.72;73.68
80781;BME280;70341;56.408;10.874;2023-07-13T01:19:37;101002.14;;;14.74;73.82
80781;BME280;70341;56.408;10.874;2023-07-13T01:22:12;101002.10;;;14.74;73.91
80781;BME280;70341;56.408;10.874;2023-07-13T01:24:47;100997.46;;;14.71;73.77
80781;BME280;70341;56.408;10.874;2023-07-13T01:27:21;100990.45;;;14.68;73.88
80781;BME280;70341;56.408;10.874;2023-07-13T01:29:53;100994.54;;;14.72;74.11
80781;BME280;70341;56.408;10.874;2023-07-13T01:32:24;100992.77;;;14.71;74.13
80781;BME280;70341;56.408;10.874;2023-07-13T01:34:54;100987.73;;;14.72;74.12
80781;BME280;70341;56.408;10.874;2023-07-13T01:37:26;100985.49;;;14.77;74.20
80781;BME280;70341;56.408;10.874;2023-07-13T01:39:55;100989.74;;;14.81;74.02
80781;BME280;70341;56.408;10.874;2023-07-13T01:42:24;100987.95;;;14.85;74.21
80781;BME280;70341;56.408;10.874;2023-07-13T01:44:54;100986.32;;;14.85;74.09
80781;BME280;70341;56.408;10.874;2023-07-13T01:47:23;100988.89;;;14.87;74.10
80781;BME280;70341;56.408;10.874;2023-07-13T01:49:52;100989.61;;;14.87;73.91
80781;BME280;70341;56.408;10.874;2023-07-13T01:52:21;100989.67;;;14.89;73.75
80781;BME280;70341;56.408;10.874;2023-07-13T01:54:52;100991.45;;;14.89;73.56
80781;BME280;70341;56.408;10.874;2023-07-13T01:57:20;100993.08;;;14.89;73.40
80781;BME280;70341;56.408;10.874;2023-07-13T01:59:50;100991.00;;;14.88;73.50
80781;BME280;70341;56.408;10.874;2023-07-13T02:02:18;100985.23;;;14.86;73.20
80781;BME280;70341;56.408;10.874;2023-07-13T02:04:48;100991.62;;;14.83;73.12
80781;BME280;70341;56.408;10.874;2023-07-13T02:07:17;100990.13;;;14.81;73.58
80781;BME280;70341;56.408;10.874;2023-07-13T02:09:48;100989.98;;;14.84;73.91
80781;BME280;70341;56.408;10.874;2023-07-13T02:12:17;100986.88;;;14.85;73.99
80781;BME280;70341;56.408;10.874;2023-07-13T02:14:47;100982.98;;;14.84;74.16
80781;BME280;70341;56.408;10.874;2023-07-13T02:17:15;100988.21;;;14.83;74.14
80781;BME280;70341;56.408;10.874;2023-07-13T02:19:46;100982.91;;;14.82;74.30
80781;BME280;70341;56.408;10.874;2023-07-13T02:22:14;100981.21;;;14.83;74.28
80781;BME280;70341;56.408;10.874;2023-07-13T02:24:45;100983.83;;;14.85;74.29
80781;BME280;70341;56.408;10.874;2023-07-13T02:27:14;100980.38;;;14.86;74.37
80781;BME280;70341;56.408;10.874;2023-07-13T02:29:44;100984.62;;;14.87;74.54
80781;BME280;70341;56.408;10.874;2023-07-13T02:32:13;100983.30;;;14.85;74.68
80781;BME280;70341;56.408;10.874;2023-07-13T02:34:44;100978.25;;;14.82;74.84
80781;BME280;70341;56.408;10.874;2023-07-13T02:37:12;100984.17;;;14.85;74.81
80781;BME280;70341;56.408;10.874;2023-07-13T02:39:44;100990.24;;;14.86;74.55
80781;BME280;70341;56.408;10.874;2023-07-13T02:42:14;100987.40;;;14.85;74.54
80781;BME280;70341;56.408;10.874;2023-07-13T02:44:43;100988.15;;;14.84;74.26
80781;BME280;70341;56.408;10.874;2023-07-13T02:47:12;100982.90;;;14.82;74.17
80781;BME280;70341;56.408;10.874;2023-07-13T02:49:42;100985.23;;;14.79;74.16
80781;BME280;70341;56.408;10.874;2023-07-13T02:52:10;100984.02;;;14.78;74.07
80781;BME280;70341;56.408;10.874;2023-07-13T02:54:40;100980.42;;;14.78;74.12
80781;BME280;70341;56.408;10.874;2023-07-13T02:57:09;100978.59;;;14.79;74.17
80781;BME280;70341;56.408;10.874;2023-07-13T02:59:39;100972.27;;;14.77;74.34
80781;BME280;70341;56.408;10.874;2023-07-13T03:02:08;100976.25;;;14.76;74.48
80781;BME280;70341;56.408;10.874;2023-07-13T03:04:38;100977.48;;;14.73;74.71
80781;BME280;70341;56.408;10.874;2023-07-13T03:07:07;100979.02;;;14.75;74.97
80781;BME280;70341;56.408;10.874;2023-07-13T03:09:37;100968.14;;;14.71;74.82
80781;BME280;70341;56.408;10.874;2023-07-13T03:12:07;100975.88;;;14.80;74.94
80781;BME280;70341;56.408;10.874;2023-07-13T03:14:36;100973.66;;;14.81;74.90
80781;BME280;70341;56.408;10.874;2023-07-13T03:17:05;100971.50;;;14.84;74.98
80781;BME280;70341;56.408;10.874;2023-07-13T03:19:35;100980.77;;;14.85;74.96
80781;BME280;70341;56.408;10.874;2023-07-13T03:22:04;100983.70;;;14.87;75.04
80781;BME280;70341;56.408;10.874;2023-07-13T03:24:34;100986.66;;;14.92;75.14
80781;BME280;70341;56.408;10.874;2023-07-13T03:27:06;100983.71;;;14.97;75.11
80781;BME280;70341;56.408;10.874;2023-07-13T03:29:37;100982.46;;;15.03;75.00
80781;BME280;70341;56.408;10.874;2023-07-13T03:32:06;100982.50;;;15.09;75.08
80781;BME280;70341;56.408;10.874;2023-07-13T03:34:36;100982.11;;;15.17;74.86
80781;BME280;70341;56.408;10.874;2023-07-13T03:37:05;100984.11;;;15.28;74.71
80781;BME280;70341;56.408;10.874;2023-07-13T03:39:35;100976.38;;;15.39;74.51
80781;BME280;70341;56.408;10.874;2023-07-13T03:42:05;100970.29;;;15.48;74.37
80781;BME280;70341;56.408;10.874;2023-07-13T03:44:35;100967.66;;;15.57;74.41
80781;BME280;70341;56.408;10.874;2023-07-13T03:47:04;100975.26;;;15.65;74.18
80781;BME280;70341;56.408;10.874;2023-07-13T03:49:34;100970.91;;;15.72;74.12
80781;BME280;70341;56.408;10.874;2023-07-13T03:52:04;100969.66;;;15.75;74.01
80781;BME280;70341;56.408;10.874;2023-07-13T03:54:34;100978.64;;;15.87;73.98
80781;BME280;70341;56.408;10.874;2023-07-13T03:57:05;100978.33;;;15.93;73.95
80781;BME280;70341;56.408;10.874;2023-07-13T03:59:34;100980.92;;;15.97;73.88
80781;BME280;70341;56.408;10.874;2023-07-13T04:02:03;100981.33;;;15.99;73.87
80781;BME280;70341;56.408;10.874;2023-07-13T04:04:34;100978.43;;;15.97;74.05
80781;BME280;70341;56.408;10.874;2023-07-13T04:07:04;100982.58;;;16.03;74.11
80781;BME280;70341;56.408;10.874;2023-07-13T04:09:35;100979.98;;;16.07;74.10
80781;BME280;70341;56.408;10.874;2023-07-13T04:12:04;100982.02;;;16.09;74.14
80781;BME280;70341;56.408;10.874;2023-07-13T04:14:35;100976.48;;;16.09;74.19
80781;BME280;70341;56.408;10.874;2023-07-13T04:17:04;100970.51;;;16.09;74.16
80781;BME280;70341;56.408;10.874;2023-07-13T04:19:35;100969.07;;;16.13;74.18
80781;BME280;70341;56.408;10.874;2023-07-13T04:22:05;100978.91;;;16.19;74.51
80781;BME280;70341;56.408;10.874;2023-07-13T04:24:34;100978.14;;;16.23;74.40
80781;BME280;70341;56.408;10.874;2023-07-13T04:27:03;100977.15;;;16.25;74.49
80781;BME280;70341;56.408;10.874;2023-07-13T04:29:33;100981.94;;;16.29;74.49
80781;BME280;70341;56.408;10.874;2023-07-13T04:32:04;100976.26;;;16.24;74.54
80781;BME280;70341;56.408;10.874;2023-07-13T04:34:34;100979.17;;;16.30;74.52
80781;BME280;70341;56.408;10.874;2023-07-13T04:37:03;100972.85;;;16.34;74.41
80781;BME280;70341;56.408;10.874;2023-07-13T04:39:32;100971.17;;;16.40;74.52
80781;BME280;70341;56.408;10.874;2023-07-13T04:42:00;100974.58;;;16.46;74.55
80781;BME280;70341;56.408;10.874;2023-07-13T04:44:30;100976.33;;;16.50;74.45
80781;BME280;70341;56.408;10.874;2023-07-13T04:46:59;100973.63;;;16.53;74.44
80781;BME280;70341;56.408;10.874;2023-07-13T04:49:30;100969.09;;;16.63;74.37
80781;BME280;70341;56.408;10.874;2023-07-13T04:51:58;100971.59;;;16.75;74.13
80781;BME280;70341;56.408;10.874;2023-07-13T04:54:29;100970.92;;;16.83;74.02
80781;BME280;70341;56.408;10.874;2023-07-13T04:56:58;100967.10;;;16.87;74.25
80781;BME280;70341;56.408;10.874;2023-07-13T04:59:27;100970.37;;;16.97;74.31
80781;BME280;70341;56.408;10.874;2023-07-13T05:01:56;100972.94;;;17.05;74.25
80781;BME280;70341;56.408;10.874;2023-07-13T05:04:26;100971.04;;;17.12;74.21
80781;BME280;70341;56.408;10.874;2023-07-13T05:06:54;100975.16;;;17.35;73.69
80781;BME280;70341;56.408;10.874;2023-07-13T05:09:24;100973.88;;;17.52;73.57
80781;BME280;70341;56.408;10.874;2023-07-13T05:11:52;100975.52;;;17.56;73.51
80781;BME280;70341;56.408;10.874;2023-07-13T05:14:23;100974.69;;;17.61;73.59
80781;BME280;70341;56.408;10.874;2023-07-13T05:16:51;100977.39;;;17.64;73.25
80781;BME280;70341;56.408;10.874;2023-07-13T05:19:22;100975.94;;;17.61;73.14
80781;BME280;70341;56.408;10.874;2023-07-13T05:21:50;100979.11;;;17.62;73.16
80781;BME280;70341;56.408;10.874;2023-07-13T05:24:21;100976.79;;;17.65;73.04
80781;BME280;70341;56.408;10.874;2023-07-13T05:26:53;100975.81;;;17.75;72.78
80781;BME280;70341;56.408;10.874;2023-07-13T05:29:23;100975.25;;;17.97;72.33
80781;BME280;70341;56.408;10.874;2023-07-13T05:31:52;100976.13;;;18.18;71.58
80781;BME280;70341;56.408;10.874;2023-07-13T05:34:21;100975.80;;;18.23;71.03
80781;BME280;70341;56.408;10.874;2023-07-13T05:36:50;100977.20;;;18.26;70.90
80781;BME280;70341;56.408;10.874;2023-07-13T05:39:20;100977.10;;;18.17;71.16
80781;BME280;70341;56.408;10.874;2023-07-13T05:41:49;100975.80;;;17.99;71.46
80781;BME280;70341;56.408;10.874;2023-07-13T05:44:18;100982.77;;;17.86;71.15
80781;BME280;70341;56.408;10.874;2023-07-13T05:46:47;100990.08;;;17.74;71.02
80781;BME280;70341;56.408;10.874;2023-07-13T05:49:18;100985.39;;;17.60;71.53
80781;BME280;70341;56.408;10.874;2023-07-13T05:51:46;100986.96;;;17.50;71.24
80781;BME280;70341;56.408;10.874;2023-07-13T05:54:16;100984.98;;;17.41;70.97
80781;BME280;70341;56.408;10.874;2023-07-13T05:56:44;100986.71;;;17.45;71.17
80781;BME280;70341;56.408;10.874;2023-07-13T05:59:15;100988.05;;;17.55;71.01
80781;BME280;70341;56.408;10.874;2023-07-13T06:01:43;100979.92;;;17.61;70.75
80781;BME280;70341;56.408;10.874;2023-07-13T06:04:13;100991.39;;;17.78;70.49
80781;BME280;70341;56.408;10.874;2023-07-13T06:06:42;100990.07;;;17.85;69.70
80781;BME280;70341;56.408;10.874;2023-07-13T06:09:12;100995.29;;;17.92;68.98
80781;BME280;70341;56.408;10.874;2023-07-13T06:11:40;100995.80;;;18.01;69.34
80781;BME280;70341;56.408;10.874;2023-07-13T06:14:11;100992.08;;;18.19;68.93
80781;BME280;70341;56.408;10.874;2023-07-13T06:16:40;100992.43;;;18.32;67.57
80781;BME280;70341;56.408;10.874;2023-07-13T06:19:10;100994.95;;;18.37;67.50
80781;BME280;70341;56.408;10.874;2023-07-13T06:21:38;100998.55;;;18.56;66.89
80781;BME280;70341;56.408;10.874;2023-07-13T06:24:08;100999.88;;;18.71;66.28
80781;BME280;70341;56.408;10.874;2023-07-13T06:26:37;101004.56;;;18.76;65.85
80781;BME280;70341;56.408;10.874;2023-07-13T06:29:07;101006.90;;;18.81;65.16
80781;BME280;70341;56.408;10.874;2023-07-13T06:31:36;101006.81;;;18.95;64.96
80781;BME280;70341;56.408;10.874;2023-07-13T06:34:05;101002.23;;;19.13;64.65
80781;BME280;70341;56.408;10.874;2023-07-13T06:36:34;101001.80;;;19.29;64.52
80781;BME280;70341;56.408;10.874;2023-07-13T06:39:05;101006.81;;;19.40;63.87
80781;BME280;70341;56.408;10.874;2023-07-13T06:41:35;101007.45;;;19.34;62.75
80781;BME280;70341;56.408;10.874;2023-07-13T06:44:05;101012.09;;;19.29;62.38
80781;BME280;70341;56.408;10.874;2023-07-13T06:46:33;101010.79;;;19.25;62.89
80781;BME280;70341;56.408;10.874;2023-07-13T06:49:03;101018.15;;;19.40;62.50
80781;BME280;70341;56.408;10.874;2023-07-13T06:51:31;101013.38;;;19.61;62.64
80781;BME280;70341;56.408;10.874;2023-07-13T06:54:04;101021.88;;;19.66;61.22
80781;BME280;70341;56.408;10.874;2023-07-13T06:56:32;101020.64;;;19.53;60.93
80781;BME280;70341;56.408;10.874;2023-07-13T06:59:03;101021.81;;;19.39;60.86
80781;BME280;70341;56.408;10.874;2023-07-13T07:01:31;101020.43;;;19.31;61.35
80781;BME280;70341;56.408;10.874;2023-07-13T07:04:03;101022.20;;;19.27;61.97
80781;BME280;70341;56.408;10.874;2023-07-13T07:06:32;101023.27;;;19.34;61.77
80781;BME280;70341;56.408;10.874;2023-07-13T07:09:03;101023.83;;;19.36;60.99
80781;BME280;70341;56.408;10.874;2023-07-13T07:11:32;101019.04;;;19.43;60.92
80781;BME280;70341;56.408;10.874;2023-07-13T07:14:01;101020.92;;;19.57;60.55
80781;BME280;70341;56.408;10.874;2023-07-13T07:16:29;101028.17;;;19.74;59.68
80781;BME280;70341;56.408;10.874;2023-07-13T07:19:00;101023.59;;;20.01;58.95
80781;BME280;70341;56.408;10.874;2023-07-13T07:21:29;101029.02;;;20.20;58.29
80781;BME280;70341;56.408;10.874;2023-07-13T07:24:00;101024.17;;;20.46;58.04
80781;BME280;70341;56.408;10.874;2023-07-13T07:26:31;101024.60;;;20.78;57.45
80781;BME280;70341;56.408;10.874;2023-07-13T07:29:21;101022.02;;;20.90;57.02
80781;BME280;70341;56.408;10.874;2023-07-13T07:31:53;101019.38;;;21.09;56.33
80781;BME280;70341;56.408;10.874;2023-07-13T07:34:25;101012.75;;;21.29;54.74
80781;BME280;70341;56.408;10.874;2023-07-13T07:36:56;101020.88;;;21.45;54.12
80781;BME280;70341;56.408;10.874;2023-07-13T07:39:29;101020.91;;;21.47;54.52
80781;BME280;70341;56.408;10.874;2023-07-13T07:41:58;101015.32;;;21.64;54.88
80781;BME280;70341;56.408;10.874;2023-07-13T07:44:31;101024.23;;;21.72;54.88
80781;BME280;70341;56.408;10.874;2023-07-13T07:46:59;101019.71;;;21.88;54.05
80781;BME280;70341;56.408;10.874;2023-07-13T07:49:29;101028.09;;;22.09;54.08
80781;BME280;70341;56.408;10.874;2023-07-13T07:51:58;101026.88;;;22.11;52.67
80781;BME280;70341;56.408;10.874;2023-07-13T07:54:27;101028.67;;;22.15;51.80
80781;BME280;70341;56.408;10.874;2023-07-13T07:57:17;101017.77;;;21.85;51.58
80781;BME280;70341;56.408;10.874;2023-07-13T08:00:08;101021.92;;;21.61;52.75
80781;BME280;70341;56.408;10.874;2023-07-13T08:02:59;101020.13;;;21.65;52.91
80781;BME280;70341;56.408;10.874;2023-07-13T08:05:52;101020.70;;;21.78;52.13
80781;BME280;70341;56.408;10.874;2023-07-13T08:08:42;101020.73;;;21.82;51.92
80781;BME280;70341;56.408;10.874;2023-07-13T08:11:10;101015.54;;;21.90;52.30
80781;BME280;70341;56.408;10.874;2023-07-13T08:13:43;101023.27;;;21.95;51.58
80781;BME280;70341;56.408;10.874;2023-07-13T08:16:12;101025.20;;;21.87;51.69
80781;BME280;70341;56.408;10.874;2023-07-13T08:18:42;101028.59;;;22.03;51.96
80781;BME280;70341;56.408;10.874;2023-07-13T08:21:11;101029.06;;;22.13;49.99
80781;BME280;70341;56.408;10.874;2023-07-13T08:23:41;101029.05;;;22.13;51.38
80781;BME280;70341;56.408;10.874;2023-07-13T08:26:09;101024.91;;;21.99;50.74
80781;BME280;70341;56.408;10.874;2023-07-13T08:28:39;101022.00;;;21.93;50.76
80781;BME280;70341;56.408;10.874;2023-07-13T08:31:10;101020.14;;;21.93;51.38
80781;BME280;70341;56.408;10.874;2023-07-13T08:33:41;101012.88;;;22.00;51.12
80781;BME280;70341;56.408;10.874;2023-07-13T08:36:10;101021.45;;;22.19;50.10
80781;BME280;70341;56.408;10.874;2023-07-13T08:38:40;101023.04;;;22.34;49.39
80781;BME280;70341;56.408;10.874;2023-07-13T08:41:15;101018.66;;;22.56;49.06
80781;BME280;70341;56.408;10.874;2023-07-13T08:43:57;101014.66;;;22.82;48.77
80781;BME280;70341;56.408;10.874;2023-07-13T08:46:41;101017.00;;;22.79;48.89
80781;BME280;70341;56.408;10.874;2023-07-13T08:49:16;101010.11;;;22.86;49.08
80781;BME280;70341;56.408;10.874;2023-07-13T08:51:57;101019.99;;;23.01;48.42
80781;BME280;70341;56.408;10.874;2023-07-13T08:54:41;101011.94;;;23.29;47.19
80781;BME280;70341;56.408;10.874;2023-07-13T08:57:18;101012.51;;;23.65;46.94
80781;BME280;70341;56.408;10.874;2023-07-13T08:59:49;101012.57;;;23.84;46.23
80781;BME280;70341;56.408;10.874;2023-07-13T09:02:34;101009.18;;;23.73;46.01
80781;BME280;70341;56.408;10.874;2023-07-13T09:05:25;101008.94;;;23.61;46.96
80781;BME280;70341;56.408;10.874;2023-07-13T09:16:58;101010.30;;;23.47;47.21
80781;BME280;70341;56.408;10.874;2023-07-13T09:19:30;101016.16;;;23.36;45.35
80781;BME280;70341;56.408;10.874;2023-07-13T09:22:10;101012.74;;;23.15;45.71
80781;BME280;70341;56.408;10.874;2023-07-13T09:25:23;101010.13;;;23.16;45.92
80781;BME280;70341;56.408;10.874;2023-07-13T09:28:01;101011.39;;;23.57;46.54
80781;BME280;70341;56.408;10.874;2023-07-13T09:33:33;101016.04;;;25.30;41.95
80781;BME280;70341;56.408;10.874;2023-07-13T09:36:21;101022.54;;;25.75;39.87
80781;BME280;70341;56.408;10.874;2023-07-13T09:39:33;101021.52;;;25.57;40.29
80781;BME280;70341;56.408;10.874;2023-07-13T09:44:58;101028.52;;;25.81;38.76
80781;BME280;70341;56.408;10.874;2023-07-13T09:47:32;101033.73;;;26.57;37.26
80781;BME280;70341;56.408;10.874;2023-07-13T09:50:09;101029.94;;;27.32;36.27
80781;BME280;70341;56.408;10.874;2023-07-13T09:52:49;101033.54;;;27.92;35.11
80781;BME280;70341;56.408;10.874;2023-07-13T09:55:25;101012.16;;;28.55;33.86
80781;BME280;70341;56.408;10.874;2023-07-13T09:57:55;101022.34;;;29.23;33.62
80781;BME280;70341;56.408;10.874;2023-07-13T10:00:28;101021.98;;;30.05;31.61
80781;BME280;70341;56.408;10.874;2023-07-13T10:03:20;101027.33;;;30.89;30.14
80781;BME280;70341;56.408;10.874;2023-07-13T10:05:53;101014.63;;;30.69;30.31
80781;BME280;70341;56.408;10.874;2023-07-13T10:08:29;101016.00;;;30.73;29.68
80781;BME280;70341;56.408;10.874;2023-07-13T10:11:02;101015.73;;;31.49;30.24
80781;BME280;70341;56.408;10.874;2023-07-13T10:13:52;101019.98;;;31.20;31.18
80781;BME280;70341;56.408;10.874;2023-07-13T10:16:30;101015.58;;;30.69;32.62
80781;BME280;70341;56.408;10.874;2023-07-13T10:19:19;101018.45;;;30.60;32.61
80781;BME280;70341;56.408;10.874;2023-07-13T10:21:55;101032.42;;;31.49;31.74
80781;BME280;70341;56.408;10.874;2023-07-13T10:24:33;101025.36;;;31.58;31.10
80781;BME280;70341;56.408;10.874;2023-07-13T10:27:20;101035.28;;;30.38;33.02
80781;BME280;70341;56.408;10.874;2023-07-13T10:32:46;101040.88;;;29.13;34.46
80781;BME280;70341;56.408;10.874;2023-07-13T10:35:20;101043.93;;;29.09;34.34
80781;BME280;70341;56.408;10.874;2023-07-13T10:38:07;101042.15;;;29.70;33.87
80781;BME280;70341;56.408;10.874;2023-07-13T10:41:09;101048.06;;;30.97;32.52
80781;BME280;70341;56.408;10.874;2023-07-13T10:43:46;101047.16;;;31.50;30.61
80781;BME280;70341;56.408;10.874;2023-07-13T10:46:22;101055.44;;;30.84;31.72
80781;BME280;70341;56.408;10.874;2023-07-13T10:48:58;101061.04;;;29.33;33.35
80781;BME280;70341;56.408;10.874;2023-07-13T10:51:31;101066.07;;;27.69;36.18
80781;BME280;70341;56.408;10.874;2023-07-13T10:54:16;101071.40;;;26.34;38.43
80781;BME280;70341;56.408;10.874;2023-07-13T10:57:16;101070.59;;;25.06;41.09
80781;BME280;70341;56.408;10.874;2023-07-13T11:00:18;101070.58;;;24.07;43.65
80781;BME280;70341;56.408;10.874;2023-07-13T11:03:01;101079.27;;;23.32;45.07
80781;BME280;70341;56.408;10.874;2023-07-13T11:05:33;101075.88;;;22.88;46.24
80781;BME280;70341;56.408;10.874;2023-07-13T11:08:20;101072.79;;;22.61;47.69
80781;BME280;70341;56.408;10.874;2023-07-13T11:10:55;101073.13;;;22.44;48.46
80781;BME280;70341;56.408;10.874;2023-07-13T11:19:27;101076.90;;;22.19;49.32
80781;BME280;70341;56.408;10.874;2023-07-13T11:33:25;101071.77;;;29.58;34.32
80781;BME280;70341;56.408;10.874;2023-07-13T11:36:12;101078.44;;;31.12;29.70
80781;BME280;70341;56.408;10.874;2023-07-13T11:38:58;101079.91;;;31.16;27.68
80781;BME280;70341;56.408;10.874;2023-07-13T11:41:44;101089.98;;;29.73;29.44
80781;BME280;70341;56.408;10.874;2023-07-13T11:44:22;101088.80;;;28.69;31.49
80781;BME280;70341;56.408;10.874;2023-07-13T11:46:59;101088.08;;;28.64;32.71
80781;BME280;70341;56.408;10.874;2023-07-13T11:49:31;101085.03;;;29.54;32.91
80781;BME280;70341;56.408;10.874;2023-07-13T11:52:01;101082.41;;;31.23;32.16
80781;BME280;70341;56.408;10.874;2023-07-13T11:54:41;101083.90;;;33.12;28.62
80781;BME280;70341;56.408;10.874;2023-07-13T11:57:36;101082.48;;;34.78;24.77
80781;BME280;70341;56.408;10.874;2023-07-13T12:00:21;101085.48;;;36.21;23.48
80781;BME280;70341;56.408;10.874;2023-07-13T12:02:57;101089.44;;;36.24;22.49
80781;BME280;70341;56.408;10.874;2023-07-13T12:05:28;101091.73;;;36.71;20.99
80781;BME280;70341;56.408;10.874;2023-07-13T12:07:57;101092.85;;;36.19;21.24
80781;BME280;70341;56.408;10.874;2023-07-13T12:10:30;101094.48;;;35.01;22.19
80781;BME280;70341;56.408;10.874;2023-07-13T12:13:04;101093.71;;;33.35;24.08
80781;BME280;70341;56.408;10.874;2023-07-13T12:15:45;101096.50;;;31.80;26.85
80781;BME280;70341;56.408;10.874;2023-07-13T12:18:23;101097.68;;;29.95;29.31
80781;BME280;70341;56.408;10.874;2023-07-13T12:20:57;101103.71;;;28.53;31.77
80781;BME280;70341;56.408;10.874;2023-07-13T12:23:34;101104.23;;;27.28;33.90
80781;BME280;70341;56.408;10.874;2023-07-13T12:26:07;101107.26;;;26.22;35.81
80781;BME280;70341;56.408;10.874;2023-07-13T12:28:52;101107.61;;;25.43;37.84
80781;BME280;70341;56.408;10.874;2023-07-13T12:31:48;101107.65;;;24.75;39.59
80781;BME280;70341;56.408;10.874;2023-07-13T12:34:21;101107.74;;;24.07;41.41
80781;BME280;70341;56.408;10.874;2023-07-13T12:37:01;101110.30;;;23.67;42.71
80781;BME280;70341;56.408;10.874;2023-07-13T12:39:45;101108.27;;;23.28;43.96
80781;BME280;70341;56.408;10.874;2023-07-13T12:42:28;101112.34;;;22.90;45.18
80781;BME280;70341;56.408;10.874;2023-07-13T12:45:12;101112.29;;;22.54;46.13
80781;BME280;70341;56.408;10.874;2023-07-13T12:47:53;101113.09;;;22.25;47.12
80781;BME280;70341;56.408;10.874;2023-07-13T12:50:41;101110.97;;;22.11;47.74
80781;BME280;70341;56.408;10.874;2023-07-13T12:53:21;101113.41;;;22.06;48.14
80781;BME280;70341;56.408;10.874;2023-07-13T12:56:00;101106.77;;;22.05;48.69
80781;BME280;70341;56.408;10.874;2023-07-13T12:58:39;101109.60;;;22.08;49.06
80781;BME280;70341;56.408;10.874;2023-07-13T13:01:12;101112.45;;;22.15;50.06
80781;BME280;70341;56.408;10.874;2023-07-13T13:03:51;101113.48;;;22.29;50.75
80781;BME280;70341;56.408;10.874;2023-07-13T13:19:27;101109.79;;;25.41;44.13
80781;BME280;70341;56.408;10.874;2023-07-13T13:21:57;101103.23;;;25.54;44.07
80781;BME280;70341;56.408;10.874;2023-07-13T13:24:28;101102.27;;;25.40;44.06
80781;BME280;70341;56.408;10.874;2023-07-13T13:26:57;101105.94;;;25.07;43.86
80781;BME280;70341;56.408;10.874;2023-07-13T13:29:26;101110.35;;;24.56;44.57
80781;BME280;70341;56.408;10.874;2023-07-13T13:31:56;101116.12;;;24.01;46.04
80781;BME280;70341;56.408;10.874;2023-07-13T13:34:25;101124.51;;;23.48;46.67
80781;BME280;70341;56.408;10.874;2023-07-13T13:36:56;101119.30;;;22.97;48.13
80781;BME280;70341;56.408;10.874;2023-07-13T13:45:09;101133.14;;;21.72;51.44
80781;BME280;70341;56.408;10.874;2023-07-13T13:47:40;101139.97;;;21.34;52.05
80781;BME280;70341;56.408;10.874;2023-07-13T13:50:17;101146.91;;;21.12;52.96
80781;BME280;70341;56.408;10.874;2023-07-13T13:52:48;101148.77;;;20.93;53.88
80781;BME280;70341;56.408;10.874;2023-07-13T13:55:21;101143.88;;;20.77;54.15
80781;BME280;70341;56.408;10.874;2023-07-13T13:57:52;101152.15;;;20.80;53.80
80781;BME280;70341;56.408;10.874;2023-07-13T14:00:21;101152.39;;;20.98;53.29
80781;BME280;70341;56.408;10.874;2023-07-13T14:02:51;101147.48;;;21.51;53.01
80781;BME280;70341;56.408;10.874;2023-07-13T14:05:24;101147.78;;;23.15;50.67